TOM9250 EGCC-EGSH
Flight info
| Callsign | TOM9250 |
|---|---|
| Flight time | 0h 35m |
| Altitude | 25000 |
| Route | DESIG L603 DOLAS |
| Aircraft | B738/M-SDE2E3FGHIRWXY/LB1 |
Departure
| Time | 2026-05-07 20:05 |
|---|---|
| Airport | Manchester Airport (EGCC) |
Arrival
| Time | 2026-05-07 20:41 |
|---|---|
| Airport | Norwich Airport (EGSH) |
| Time | Latitude | Longitude | Altitude | Speed | Heading |
|---|---|---|---|---|---|
| 2026-05-07 19:26 | 53.36892 | -2.28790 | 254 ft | 0 kts | 135° |
| 2026-05-07 19:53 | 53.36901 | -2.28805 | 254 ft | 4 kts | 135° |
| 2026-05-07 19:54 | 53.36915 | -2.28830 | 254 ft | 4 kts | 148° |
| 2026-05-07 19:54 | 53.36933 | -2.28830 | 254 ft | 4 kts | 223° |
| 2026-05-07 19:54 | 53.36951 | -2.28800 | 254 ft | 4 kts | 225° |
| 2026-05-07 19:54 | 53.36956 | -2.28792 | 254 ft | 0 kts | 225° |
| 2026-05-07 19:57 | 53.36941 | -2.28817 | 254 ft | 6 kts | 224° |
| 2026-05-07 19:57 | 53.36894 | -2.28894 | 254 ft | 12 kts | 225° |
| 2026-05-07 19:58 | 53.36822 | -2.29009 | 254 ft | 16 kts | 207° |
| 2026-05-07 19:58 | 53.36734 | -2.29020 | 254 ft | 13 kts | 140° |
| 2026-05-07 19:58 | 53.36666 | -2.28913 | 254 ft | 13 kts | 149° |
| 2026-05-07 19:58 | 53.36595 | -2.28817 | 254 ft | 13 kts | 116° |
| 2026-05-07 19:59 | 53.36539 | -2.28689 | 254 ft | 15 kts | 135° |
| 2026-05-07 19:59 | 53.36457 | -2.28552 | 254 ft | 17 kts | 133° |
| 2026-05-07 19:59 | 53.36355 | -2.28469 | 254 ft | 17 kts | 159° |
| 2026-05-07 19:59 | 53.36259 | -2.28326 | 254 ft | 21 kts | 138° |
| 2026-05-07 20:00 | 53.36152 | -2.28144 | 254 ft | 23 kts | 135° |
| 2026-05-07 20:00 | 53.36042 | -2.27976 | 254 ft | 21 kts | 139° |
| 2026-05-07 20:00 | 53.35935 | -2.27853 | 254 ft | 17 kts | 167° |
| 2026-05-07 20:00 | 53.35838 | -2.27783 | 251 ft | 17 kts | 131° |
| 2026-05-07 20:01 | 53.35743 | -2.27647 | 248 ft | 18 kts | 159° |
| 2026-05-07 20:01 | 53.35634 | -2.27542 | 245 ft | 16 kts | 135° |
| 2026-05-07 20:01 | 53.35656 | -2.27378 | 250 ft | 16 kts | 50° |
| 2026-05-07 20:01 | 53.35727 | -2.27227 | 254 ft | 18 kts | 50° |
| 2026-05-07 20:02 | 53.35808 | -2.27061 | 254 ft | 19 kts | 57° |
| 2026-05-07 20:02 | 53.35878 | -2.26884 | 255 ft | 18 kts | 51° |
| 2026-05-07 20:02 | 53.35953 | -2.26709 | 255 ft | 20 kts | 52° |
| 2026-05-07 20:02 | 53.36043 | -2.26526 | 255 ft | 21 kts | 50° |
| 2026-05-07 20:03 | 53.36133 | -2.26334 | 254 ft | 21 kts | 47° |
| 2026-05-07 20:03 | 53.36231 | -2.26180 | 255 ft | 17 kts | 49° |
| 2026-05-07 20:03 | 53.36270 | -2.26058 | 255 ft | 10 kts | 85° |
| 2026-05-07 20:03 | 53.36283 | -2.25929 | 254 ft | 14 kts | 73° |
| 2026-05-07 20:04 | 53.36260 | -2.25770 | 259 ft | 13 kts | 144° |
| 2026-05-07 20:04 | 53.36192 | -2.25801 | 258 ft | 2 kts | 231° |
| 2026-05-07 20:04 | 53.36188 | -2.25809 | 258 ft | 4 kts | 232° |
| 2026-05-07 20:05 | 53.36118 | -2.25958 | 257 ft | 47 kts | 231° |
| 2026-05-07 20:05 | 53.35723 | -2.26775 | 269 ft | 130 kts | 231° |
| 2026-05-07 20:05 | 53.35055 | -2.28157 | 736 ft | 156 kts | 230° |
| 2026-05-07 20:05 | 53.34404 | -2.29505 | 1903 ft | 144 kts | 230° |
| 2026-05-07 20:06 | 53.33787 | -2.30824 | 2801 ft | 150 kts | 229° |
| 2026-05-07 20:06 | 53.33057 | -2.32340 | 3232 ft | 187 kts | 227° |
| 2026-05-07 20:06 | 53.32230 | -2.34275 | 3540 ft | 224 kts | 240° |
| 2026-05-07 20:06 | 53.31963 | -2.37014 | 3846 ft | 261 kts | 275° |
| 2026-05-07 20:07 | 53.32769 | -2.39788 | 4730 ft | 272 kts | 314° |
| 2026-05-07 20:07 | 53.34411 | -2.41306 | 5904 ft | 274 kts | 344° |
| 2026-05-07 20:07 | 53.36283 | -2.42040 | 6949 ft | 280 kts | 345° |
| 2026-05-07 20:07 | 53.38177 | -2.42892 | 7980 ft | 284 kts | 342° |
| 2026-05-07 20:08 | 53.40078 | -2.43841 | 9055 ft | 287 kts | 341° |
| 2026-05-07 20:08 | 53.41999 | -2.44839 | 10132 ft | 292 kts | 340° |
| 2026-05-07 20:08 | 53.44030 | -2.45646 | 10799 ft | 316 kts | 356° |
| 2026-05-07 20:08 | 53.46218 | -2.44767 | 11499 ft | 335 kts | 29° |
| 2026-05-07 20:09 | 53.47921 | -2.42113 | 12470 ft | 338 kts | 59° |
| 2026-05-07 20:09 | 53.48677 | -2.38425 | 13530 ft | 336 kts | 88° |
| 2026-05-07 20:09 | 53.48513 | -2.34512 | 14581 ft | 338 kts | 98° |
| 2026-05-07 20:10 | 53.48772 | -2.26457 | 16590 ft | 353 kts | 83° |
| 2026-05-07 20:10 | 53.49210 | -2.22371 | 17578 ft | 359 kts | 81° |
| 2026-05-07 20:10 | 53.49678 | -2.18218 | 18548 ft | 364 kts | 81° |
| 2026-05-07 20:10 | 53.50140 | -2.14006 | 19476 ft | 369 kts | 82° |
| 2026-05-07 20:11 | 53.50592 | -2.09747 | 20434 ft | 371 kts | 82° |
| 2026-05-07 20:11 | 53.51040 | -2.05486 | 21563 ft | 368 kts | 82° |
| 2026-05-07 20:11 | 53.51480 | -2.01278 | 22691 ft | 364 kts | 82° |
| 2026-05-07 20:11 | 53.51915 | -1.97097 | 23719 ft | 362 kts | 82° |
| 2026-05-07 20:12 | 53.52335 | -1.92927 | 24590 ft | 363 kts | 84° |
| 2026-05-07 20:12 | 53.52404 | -1.88759 | 24933 ft | 352 kts | 97° |
| 2026-05-07 20:12 | 53.52001 | -1.84705 | 25009 ft | 354 kts | 107° |
| 2026-05-07 20:12 | 53.51305 | -1.80718 | 25024 ft | 356 kts | 109° |
| 2026-05-07 20:13 | 53.50574 | -1.76756 | 25019 ft | 354 kts | 109° |
| 2026-05-07 20:13 | 53.49849 | -1.72811 | 25021 ft | 353 kts | 109° |
| 2026-05-07 20:13 | 53.49140 | -1.68872 | 25023 ft | 353 kts | 109° |
| 2026-05-07 20:13 | 53.48438 | -1.64928 | 25019 ft | 353 kts | 109° |
| 2026-05-07 20:14 | 53.47737 | -1.60976 | 25020 ft | 352 kts | 109° |
| 2026-05-07 20:14 | 53.47047 | -1.57092 | 25024 ft | 352 kts | 109° |
| 2026-05-07 20:14 | 53.46333 | -1.53094 | 25026 ft | 353 kts | 109° |
| 2026-05-07 20:14 | 53.45634 | -1.49200 | 25019 ft | 354 kts | 109° |
| 2026-05-07 20:15 | 53.44923 | -1.45249 | 25027 ft | 354 kts | 109° |
| 2026-05-07 20:15 | 53.44200 | -1.41237 | 25022 ft | 355 kts | 109° |
| 2026-05-07 20:15 | 53.43484 | -1.37263 | 25024 ft | 357 kts | 109° |
| 2026-05-07 20:15 | 53.42774 | -1.33331 | 25018 ft | 357 kts | 109° |
| 2026-05-07 20:16 | 53.42041 | -1.29292 | 25016 ft | 358 kts | 109° |
| 2026-05-07 20:16 | 53.41319 | -1.25307 | 25020 ft | 358 kts | 109° |
| 2026-05-07 20:16 | 53.40605 | -1.21368 | 25018 ft | 358 kts | 109° |
| 2026-05-07 20:16 | 53.39879 | -1.17379 | 25026 ft | 358 kts | 109° |
| 2026-05-07 20:17 | 53.39151 | -1.13398 | 25026 ft | 358 kts | 109° |
| 2026-05-07 20:17 | 53.38421 | -1.09410 | 25023 ft | 358 kts | 109° |
| 2026-05-07 20:17 | 53.37692 | -1.05434 | 25030 ft | 357 kts | 109° |
| 2026-05-07 20:17 | 53.36961 | -1.01457 | 25033 ft | 357 kts | 109° |
| 2026-05-07 20:18 | 53.36230 | -0.97483 | 25035 ft | 357 kts | 109° |
| 2026-05-07 20:18 | 53.35496 | -0.93505 | 25039 ft | 357 kts | 109° |
| 2026-05-07 20:18 | 53.34763 | -0.89538 | 25044 ft | 357 kts | 109° |
| 2026-05-07 20:18 | 53.34027 | -0.85562 | 25043 ft | 357 kts | 109° |
| 2026-05-07 20:19 | 53.33292 | -0.81601 | 25048 ft | 357 kts | 109° |
| 2026-05-07 20:19 | 53.32558 | -0.77628 | 25047 ft | 358 kts | 109° |
| 2026-05-07 20:19 | 53.31822 | -0.73658 | 25046 ft | 358 kts | 109° |
| 2026-05-07 20:19 | 53.31082 | -0.69681 | 25044 ft | 358 kts | 109° |
| 2026-05-07 20:20 | 53.30339 | -0.65716 | 25048 ft | 358 kts | 109° |
| 2026-05-07 20:20 | 53.29592 | -0.61737 | 25051 ft | 358 kts | 109° |
| 2026-05-07 20:20 | 53.28843 | -0.57755 | 24811 ft | 361 kts | 109° |
| 2026-05-07 20:20 | 53.28093 | -0.53776 | 24453 ft | 359 kts | 109° |
| 2026-05-07 20:21 | 53.27348 | -0.49826 | 23987 ft | 359 kts | 109° |
| 2026-05-07 20:21 | 53.26598 | -0.45857 | 23479 ft | 359 kts | 109° |
| 2026-05-07 20:21 | 53.25841 | -0.41880 | 22958 ft | 359 kts | 109° |
| 2026-05-07 20:21 | 53.25085 | -0.37906 | 22443 ft | 359 kts | 109° |
| 2026-05-07 20:22 | 53.24333 | -0.33944 | 22015 ft | 356 kts | 109° |
| 2026-05-07 20:22 | 53.23586 | -0.30019 | 21578 ft | 354 kts | 109° |
| 2026-05-07 20:22 | 53.22840 | -0.26120 | 21142 ft | 351 kts | 109° |
| 2026-05-07 20:22 | 53.22101 | -0.22256 | 20714 ft | 349 kts | 109° |
| 2026-05-07 20:23 | 53.21363 | -0.18416 | 20283 ft | 346 kts | 110° |
| 2026-05-07 20:23 | 53.20628 | -0.14599 | 19860 ft | 344 kts | 110° |
| 2026-05-07 20:23 | 53.19899 | -0.10815 | 19435 ft | 342 kts | 110° |
| 2026-05-07 20:23 | 53.19171 | -0.07049 | 19011 ft | 340 kts | 110° |
| 2026-05-07 20:24 | 53.18449 | -0.03311 | 18590 ft | 338 kts | 110° |
| 2026-05-07 20:24 | 53.17730 | 0.00400 | 18165 ft | 336 kts | 110° |
| 2026-05-07 20:24 | 53.17025 | 0.04044 | 17750 ft | 333 kts | 109° |
| 2026-05-07 20:24 | 53.16315 | 0.07705 | 17331 ft | 331 kts | 109° |
| 2026-05-07 20:25 | 53.15607 | 0.11341 | 16915 ft | 329 kts | 109° |
| 2026-05-07 20:25 | 53.14902 | 0.14955 | 16494 ft | 327 kts | 109° |
| 2026-05-07 20:25 | 53.14199 | 0.18550 | 16078 ft | 325 kts | 109° |
| 2026-05-07 20:25 | 53.13499 | 0.22124 | 15661 ft | 324 kts | 109° |
| 2026-05-07 20:26 | 53.12800 | 0.25679 | 15241 ft | 322 kts | 109° |
| 2026-05-07 20:26 | 53.12103 | 0.29214 | 14827 ft | 320 kts | 109° |
| 2026-05-07 20:26 | 53.11411 | 0.32723 | 14415 ft | 318 kts | 109° |
| 2026-05-07 20:26 | 53.10722 | 0.36207 | 14006 ft | 316 kts | 109° |
| 2026-05-07 20:27 | 53.10036 | 0.39674 | 13598 ft | 314 kts | 109° |
| 2026-05-07 20:27 | 53.09353 | 0.43115 | 13184 ft | 312 kts | 109° |
| 2026-05-07 20:27 | 53.08673 | 0.46536 | 12762 ft | 310 kts | 109° |
| 2026-05-07 20:27 | 53.07998 | 0.49932 | 12367 ft | 309 kts | 109° |
| 2026-05-07 20:28 | 53.07322 | 0.53314 | 11959 ft | 307 kts | 109° |
| 2026-05-07 20:28 | 53.06653 | 0.56664 | 11559 ft | 305 kts | 109° |
| 2026-05-07 20:28 | 53.05985 | 0.60001 | 11156 ft | 304 kts | 109° |
| 2026-05-07 20:28 | 53.05318 | 0.63327 | 10756 ft | 302 kts | 109° |
| 2026-05-07 20:29 | 53.04655 | 0.66629 | 10357 ft | 300 kts | 109° |
| 2026-05-07 20:29 | 53.04001 | 0.69883 | 10146 ft | 292 kts | 109° |
| 2026-05-07 20:29 | 53.03363 | 0.73051 | 9797 ft | 289 kts | 109° |
| 2026-05-07 20:29 | 53.02725 | 0.76212 | 9437 ft | 287 kts | 109° |
| 2026-05-07 20:30 | 53.02090 | 0.79348 | 9074 ft | 286 kts | 109° |
| 2026-05-07 20:30 | 53.01458 | 0.82459 | 8715 ft | 284 kts | 109° |
| 2026-05-07 20:30 | 53.00827 | 0.85565 | 8357 ft | 283 kts | 109° |
| 2026-05-07 20:30 | 53.00201 | 0.88644 | 8002 ft | 281 kts | 109° |
| 2026-05-07 20:31 | 52.99578 | 0.91708 | 7648 ft | 279 kts | 109° |
| 2026-05-07 20:31 | 52.98960 | 0.94754 | 7299 ft | 278 kts | 109° |
| 2026-05-07 20:31 | 52.98133 | 0.97611 | 6925 ft | 275 kts | 130° |
| 2026-05-07 20:31 | 52.96650 | 0.99463 | 6590 ft | 271 kts | 158° |
| 2026-05-07 20:32 | 52.94828 | 1.00131 | 6250 ft | 269 kts | 177° |
| 2026-05-07 20:32 | 52.92967 | 1.00170 | 5907 ft | 267 kts | 181° |
| 2026-05-07 20:32 | 52.91110 | 1.00114 | 5551 ft | 267 kts | 181° |
| 2026-05-07 20:32 | 52.89247 | 1.00048 | 5123 ft | 268 kts | 181° |
| 2026-05-07 20:33 | 52.87387 | 0.99987 | 4763 ft | 266 kts | 180° |
| 2026-05-07 20:33 | 52.85543 | 0.99935 | 4441 ft | 263 kts | 180° |
| 2026-05-07 20:33 | 52.83750 | 0.99892 | 4323 ft | 252 kts | 180° |
| 2026-05-07 20:33 | 52.82031 | 0.99853 | 4201 ft | 243 kts | 180° |
| 2026-05-07 20:34 | 52.80373 | 0.99818 | 4089 ft | 234 kts | 179° |
| 2026-05-07 20:34 | 52.78791 | 0.99785 | 4019 ft | 219 kts | 179° |
| 2026-05-07 20:34 | 52.77320 | 0.99757 | 3907 ft | 204 kts | 179° |
| 2026-05-07 20:34 | 52.75955 | 0.99732 | 3828 ft | 190 kts | 179° |
| 2026-05-07 20:35 | 52.74670 | 0.99709 | 3736 ft | 178 kts | 179° |
| 2026-05-07 20:35 | 52.73474 | 0.99686 | 3664 ft | 165 kts | 179° |
| 2026-05-07 20:35 | 52.72363 | 0.99660 | 3587 ft | 154 kts | 179° |
| 2026-05-07 20:35 | 52.71312 | 0.99640 | 3486 ft | 150 kts | 178° |
| 2026-05-07 20:36 | 52.70272 | 0.99623 | 3374 ft | 150 kts | 178° |
| 2026-05-07 20:36 | 52.69226 | 0.99604 | 3250 ft | 150 kts | 179° |
| 2026-05-07 20:36 | 52.68180 | 0.99625 | 3117 ft | 149 kts | 169° |
| 2026-05-07 20:36 | 52.67369 | 1.00520 | 3010 ft | 146 kts | 112° |
| 2026-05-07 20:37 | 52.67232 | 1.02185 | 3009 ft | 150 kts | 96° |
| 2026-05-07 20:37 | 52.67153 | 1.03908 | 2878 ft | 151 kts | 96° |
| 2026-05-07 20:37 | 52.67092 | 1.05631 | 2690 ft | 149 kts | 92° |
| 2026-05-07 20:37 | 52.67102 | 1.07304 | 2491 ft | 142 kts | 90° |
| 2026-05-07 20:38 | 52.67135 | 1.08879 | 2302 ft | 134 kts | 89° |
| 2026-05-07 20:38 | 52.67169 | 1.10362 | 2138 ft | 128 kts | 89° |
| 2026-05-07 20:38 | 52.67205 | 1.11809 | 1981 ft | 128 kts | 89° |
| 2026-05-07 20:38 | 52.67243 | 1.13257 | 1807 ft | 128 kts | 87° |
| 2026-05-07 20:39 | 52.67342 | 1.14726 | 1673 ft | 130 kts | 85° |
| 2026-05-07 20:39 | 52.67441 | 1.16224 | 1485 ft | 133 kts | 87° |
| 2026-05-07 20:39 | 52.67505 | 1.17738 | 1264 ft | 132 kts | 87° |
| 2026-05-07 20:39 | 52.67548 | 1.19257 | 1016 ft | 134 kts | 90° |
| 2026-05-07 20:40 | 52.67524 | 1.20758 | 828 ft | 129 kts | 93° |
| 2026-05-07 20:40 | 52.67532 | 1.22234 | 682 ft | 128 kts | 88° |
| 2026-05-07 20:40 | 52.67558 | 1.23709 | 516 ft | 129 kts | 91° |
| 2026-05-07 20:40 | 52.67569 | 1.25187 | 351 ft | 129 kts | 89° |
| 2026-05-07 20:41 | 52.67581 | 1.26650 | 173 ft | 126 kts | 90° |
| 2026-05-07 20:41 | 52.67592 | 1.27975 | 117 ft | 94 kts | 89° |
| 2026-05-07 20:41 | 52.67597 | 1.28683 | 118 ft | 30 kts | 90° |
| 2026-05-07 20:41 | 52.67601 | 1.28855 | 117 ft | 13 kts | 74° |
| 2026-05-07 20:42 | 52.67606 | 1.29002 | 120 ft | 13 kts | 95° |
| 2026-05-07 20:42 | 52.67601 | 1.29166 | 118 ft | 17 kts | 91° |
| 2026-05-07 20:42 | 52.67600 | 1.29342 | 115 ft | 14 kts | 90° |
| 2026-05-07 20:42 | 52.67589 | 1.29485 | 114 ft | 10 kts | 123° |
| 2026-05-07 20:43 | 52.67559 | 1.29578 | 117 ft | 3 kts | 74° |
| 2026-05-07 20:43 | 52.67583 | 1.29596 | 113 ft | 5 kts | 355° |
| 2026-05-07 20:43 | 52.67602 | 1.29505 | 117 ft | 12 kts | 270° |
| 2026-05-07 20:43 | 52.67601 | 1.29359 | 115 ft | 14 kts | 269° |
| 2026-05-07 20:44 | 52.67599 | 1.29202 | 115 ft | 14 kts | 266° |
| 2026-05-07 20:44 | 52.67599 | 1.29093 | 117 ft | 15 kts | 272° |
| 2026-05-07 20:44 | 52.67599 | 1.28912 | 117 ft | 17 kts | 268° |
| 2026-05-07 20:44 | 52.67597 | 1.28686 | 118 ft | 22 kts | 269° |
| 2026-05-07 20:45 | 52.67564 | 1.28375 | 116 ft | 21 kts | 222° |
| 2026-05-07 20:45 | 52.67450 | 1.28232 | 119 ft | 20 kts | 217° |
| 2026-05-07 20:45 | 52.67337 | 1.28097 | 120 ft | 20 kts | 217° |
| 2026-05-07 20:45 | 52.67229 | 1.27964 | 119 ft | 19 kts | 218° |
| 2026-05-07 20:46 | 52.67160 | 1.27863 | 119 ft | 21 kts | 217° |
| 2026-05-07 20:46 | 52.67076 | 1.27785 | 118 ft | 9 kts | 158° |
| 2026-05-07 20:46 | 52.67035 | 1.27895 | 119 ft | 14 kts | 106° |
| 2026-05-07 20:46 | 52.67021 | 1.27971 | 117 ft | 3 kts | 136° |
| 2026-05-07 20:47 | 52.66988 | 1.27971 | 120 ft | 6 kts | 189° |
| 2026-05-07 20:47 | 52.66966 | 1.27965 | 116 ft | 2 kts | 191° |
| 2026-05-07 20:47 | 52.66963 | 1.27964 | 120 ft | 0 kts | 189° |